createdAt,value
2023-01-25T00:02:09.148Z,15.30
2023-01-25T00:04:35.965Z,15.40
2023-01-25T00:07:02.679Z,14.93
2023-01-25T00:09:29.410Z,14.77
2023-01-25T00:11:58.139Z,14.27
2023-01-25T00:14:25.504Z,14.52
2023-01-25T00:16:52.538Z,14.77
2023-01-25T00:19:19.755Z,14.52
2023-01-25T00:21:46.654Z,14.60
2023-01-25T00:24:14.529Z,14.38
2023-01-25T00:26:44.114Z,14.85
2023-01-25T00:29:14.261Z,14.23
2023-01-25T00:32:07.941Z,15.27
2023-01-25T00:34:44.101Z,14.20
2023-01-25T00:37:21.146Z,15.20
2023-01-25T00:39:48.222Z,14.40
2023-01-25T00:42:16.504Z,14.43
2023-01-25T00:44:45.042Z,14.35
2023-01-25T00:47:12.439Z,15.18
2023-01-25T00:49:40.539Z,15.07
2023-01-25T00:52:07.967Z,14.20
2023-01-25T00:54:35.108Z,14.70
2023-01-25T00:57:02.700Z,15.65
2023-01-25T00:59:29.620Z,14.10
2023-01-25T01:01:56.656Z,14.15
2023-01-25T01:04:26.416Z,14.95
2023-01-25T01:06:54.190Z,15.00
2023-01-25T01:09:21.697Z,14.65
2023-01-25T01:11:48.574Z,15.13
2023-01-25T01:14:18.277Z,15.50
2023-01-25T01:16:45.311Z,14.52
2023-01-25T01:19:12.239Z,15.38
2023-01-25T01:21:39.229Z,13.43
2023-01-25T01:24:06.656Z,14.57
2023-01-25T01:26:33.592Z,14.43
2023-01-25T01:29:00.366Z,14.05
2023-01-25T01:31:27.351Z,13.30
2023-01-25T01:34:19.086Z,13.55
2023-01-25T01:36:46.204Z,13.63
2023-01-25T01:39:12.955Z,14.23
2023-01-25T01:41:40.468Z,15.48
2023-01-25T01:44:16.687Z,15.05
2023-01-25T01:46:52.080Z,15.55
2023-01-25T01:49:28.115Z,14.70
2023-01-25T01:52:03.517Z,14.98
2023-01-25T01:54:38.429Z,14.43
2023-01-25T01:57:09.458Z,14.50
2023-01-25T01:59:55.938Z,14.10
2023-01-25T02:02:26.037Z,14.88
2023-01-25T02:04:58.562Z,13.57
2023-01-25T02:07:36.933Z,13.90
2023-01-25T02:10:05.672Z,14.98
2023-01-25T02:12:32.854Z,15.68
2023-01-25T02:15:00.357Z,14.07
2023-01-25T02:17:32.788Z,14.60
2023-01-25T02:20:20.773Z,14.90
2023-01-25T02:23:11.236Z,15.15
2023-01-25T02:25:38.156Z,15.27
2023-01-25T02:28:23.753Z,14.65
2023-01-25T02:30:50.946Z,14.90
2023-01-25T02:33:18.578Z,14.40
2023-01-25T02:35:51.537Z,15.95
2023-01-25T02:38:21.253Z,15.27
2023-01-25T02:40:57.973Z,15.70
2023-01-25T02:43:28.434Z,16.77
2023-01-25T02:46:00.741Z,16.50
2023-01-25T02:48:27.720Z,17.30
2023-01-25T02:50:54.514Z,15.90
2023-01-25T02:53:21.348Z,16.10
2023-01-25T02:55:48.104Z,16.27
2023-01-25T02:58:14.975Z,15.60
2023-01-25T03:00:41.782Z,17.13
2023-01-25T03:03:08.797Z,17.13
2023-01-25T03:05:35.621Z,17.27
2023-01-25T03:08:02.344Z,15.93
2023-01-25T03:10:29.065Z,16.40
2023-01-25T03:12:55.961Z,16.73
2023-01-25T03:15:23.547Z,15.75
2023-01-25T03:17:50.397Z,15.82
2023-01-25T03:20:18.579Z,16.27
2023-01-25T03:22:45.332Z,17.40
2023-01-25T03:25:12.203Z,18.05
2023-01-25T03:27:45.837Z,16.75
2023-01-25T03:30:13.035Z,17.83
2023-01-25T03:32:40.411Z,16.42
2023-01-25T03:35:10.913Z,17.15
2023-01-25T03:37:38.306Z,16.40
2023-01-25T03:40:06.220Z,17.92
2023-01-25T03:42:33.451Z,17.70
2023-01-25T03:45:00.339Z,18.63
2023-01-25T03:47:28.671Z,17.63
2023-01-25T03:49:55.666Z,18.02
2023-01-25T03:53:37.149Z,17.15
2023-01-25T03:56:11.882Z,18.48
2023-01-25T03:58:45.048Z,18.00
2023-01-25T04:01:12.602Z,17.50
2023-01-25T04:03:39.485Z,18.52
2023-01-25T04:06:06.890Z,17.90
2023-01-25T04:08:34.415Z,18.55
2023-01-25T04:11:06.465Z,18.67
2023-01-25T04:13:36.798Z,19.35
2023-01-25T04:16:11.848Z,19.08
2023-01-25T04:18:57.859Z,19.38
2023-01-25T04:21:25.267Z,19.02
2023-01-25T04:23:52.234Z,18.30
2023-01-25T04:26:19.141Z,19.27
2023-01-25T04:28:52.693Z,19.10
2023-01-25T04:31:19.673Z,19.20
2023-01-25T04:33:46.818Z,20.45
2023-01-25T04:36:17.015Z,18.60
2023-01-25T04:38:44.583Z,19.23
2023-01-25T04:41:11.691Z,20.10
2023-01-25T04:43:38.624Z,19.35
2023-01-25T04:46:09.912Z,19.23
2023-01-25T04:48:36.771Z,20.33
2023-01-25T04:51:06.061Z,20.60
2023-01-25T04:53:37.190Z,20.23
2023-01-25T04:56:06.655Z,20.13
2023-01-25T04:58:41.695Z,20.85
2023-01-25T05:01:08.967Z,20.10
2023-01-25T05:03:35.872Z,20.50
2023-01-25T05:06:04.245Z,19.70
2023-01-25T05:08:31.034Z,18.52
2023-01-25T05:11:00.916Z,19.02
2023-01-25T05:13:47.157Z,19.67
2023-01-25T05:16:21.791Z,18.23
2023-01-25T05:18:49.572Z,19.95
2023-01-25T05:21:49.614Z,20.52
2023-01-25T05:24:16.499Z,19.30
2023-01-25T05:27:03.661Z,19.98
2023-01-25T05:29:57.583Z,19.45
2023-01-25T05:32:49.430Z,18.75
2023-01-25T05:35:17.362Z,20.08
2023-01-25T05:37:45.036Z,18.73
2023-01-25T05:40:20.540Z,18.80
2023-01-25T05:42:59.893Z,19.17
2023-01-25T05:45:30.238Z,19.67
2023-01-25T05:47:58.341Z,19.10
2023-01-25T05:50:26.515Z,18.65
2023-01-25T05:52:59.884Z,18.30
2023-01-25T05:55:27.824Z,19.10
2023-01-25T05:57:57.032Z,19.52
2023-01-25T06:00:24.358Z,20.13
2023-01-25T06:02:51.235Z,17.20
2023-01-25T06:05:22.403Z,17.85
2023-01-25T06:07:49.742Z,18.90
2023-01-25T06:10:18.581Z,19.52
2023-01-25T06:12:48.814Z,18.92
2023-01-25T06:15:15.763Z,18.67
2023-01-25T06:17:42.824Z,18.42
2023-01-25T06:20:23.905Z,19.05
2023-01-25T06:23:18.101Z,17.98
2023-01-25T06:25:45.229Z,17.50
2023-01-25T06:28:12.083Z,16.45
2023-01-25T06:30:38.894Z,16.92
2023-01-25T06:33:06.598Z,17.35
2023-01-25T06:35:34.008Z,17.27
2023-01-25T06:38:01.214Z,17.17
2023-01-25T06:40:28.949Z,18.73
2023-01-25T06:42:55.726Z,18.63
2023-01-25T06:45:22.623Z,17.73
2023-01-25T06:47:49.829Z,17.63
2023-01-25T06:50:16.666Z,17.73
2023-01-25T06:52:43.332Z,18.08
2023-01-25T06:55:14.162Z,16.13
2023-01-25T06:57:40.977Z,17.88
2023-01-25T07:00:08.895Z,18.10
2023-01-25T07:02:37.167Z,19.17
2023-01-25T07:05:04.317Z,19.52
2023-01-25T07:07:31.162Z,18.60
2023-01-25T07:10:00.511Z,17.65
2023-01-25T07:12:28.876Z,18.40
2023-01-25T07:14:55.824Z,17.55
2023-01-25T07:17:22.736Z,18.13
2023-01-25T07:19:49.748Z,18.13
2023-01-25T07:22:18.061Z,18.35
2023-01-25T07:24:50.056Z,18.27
2023-01-25T07:27:17.398Z,18.85
2023-01-25T07:29:44.302Z,21.48
2023-01-25T07:32:14.624Z,19.27
2023-01-25T07:34:41.437Z,19.83
2023-01-25T07:37:09.306Z,19.90
2023-01-25T07:39:36.714Z,20.38
2023-01-25T07:42:03.639Z,20.42
2023-01-25T07:44:32.319Z,20.63
2023-01-25T07:47:09.305Z,19.05
2023-01-25T07:49:36.379Z,19.17
2023-01-25T07:52:03.533Z,19.58
2023-01-25T07:54:30.390Z,20.30
2023-01-25T07:56:58.060Z,20.10
2023-01-25T07:59:25.400Z,20.20
2023-01-25T08:01:53.483Z,19.50
2023-01-25T08:04:20.420Z,19.27
2023-01-25T08:06:47.425Z,19.88
2023-01-25T08:09:20.329Z,19.85
2023-01-25T08:11:49.409Z,20.23
2023-01-25T08:14:16.107Z,19.63
2023-01-25T08:16:42.926Z,20.38
2023-01-25T08:19:11.190Z,20.05
2023-01-25T08:21:38.051Z,20.50
2023-01-25T08:24:06.763Z,20.90
2023-01-25T08:26:35.284Z,20.75
2023-01-25T08:29:02.718Z,21.65
2023-01-25T08:31:31.454Z,19.88
2023-01-25T08:34:00.495Z,21.77
2023-01-25T08:36:28.476Z,19.92
2023-01-25T08:39:00.641Z,21.23
2023-01-25T08:41:29.172Z,21.40
2023-01-25T08:43:56.868Z,21.42
2023-01-25T08:46:25.595Z,22.45
2023-01-25T08:48:56.516Z,21.50
2023-01-25T08:51:24.324Z,21.45
2023-01-25T08:53:51.034Z,21.80
2023-01-25T08:56:18.062Z,21.15
2023-01-25T08:58:46.602Z,22.60
2023-01-25T09:01:16.219Z,21.63
2023-01-25T09:03:44.588Z,21.23
2023-01-25T09:06:18.356Z,21.33
2023-01-25T09:08:45.251Z,22.90
2023-01-25T09:11:15.238Z,22.25
2023-01-25T09:13:45.544Z,22.95
2023-01-25T09:16:15.525Z,21.48
2023-01-25T09:18:43.757Z,20.02
2023-01-25T09:21:16.092Z,22.27
2023-01-25T09:24:05.655Z,21.58
2023-01-25T09:26:44.539Z,21.45
2023-01-25T09:29:14.846Z,21.02
2023-01-25T09:31:43.945Z,20.55
2023-01-25T09:34:33.988Z,22.17
2023-01-25T09:37:00.852Z,21.73
2023-01-25T09:39:27.745Z,22.10
2023-01-25T09:42:20.351Z,22.90
2023-01-25T09:45:04.698Z,22.27
2023-01-25T09:47:53.153Z,20.80
2023-01-25T09:50:43.075Z,20.58
2023-01-25T09:53:24.581Z,20.50
2023-01-25T09:55:58.863Z,21.13
2023-01-25T09:58:35.346Z,20.23
2023-01-25T10:01:17.878Z,21.67
2023-01-25T10:03:55.622Z,21.30
2023-01-25T10:06:24.675Z,20.67
2023-01-25T10:09:19.891Z,19.92
2023-01-25T10:11:48.087Z,20.83
2023-01-25T10:14:17.064Z,20.88
2023-01-25T10:16:53.657Z,20.83
2023-01-25T10:19:40.647Z,20.42
2023-01-25T10:22:22.759Z,21.38
2023-01-25T10:25:12.204Z,21.38
2023-01-25T10:27:48.014Z,21.10
2023-01-25T10:30:27.779Z,22.13
2023-01-25T10:33:00.825Z,21.08
2023-01-25T10:35:35.848Z,22.40
2023-01-25T10:38:12.119Z,22.00
2023-01-25T10:40:51.100Z,20.88
2023-01-25T10:43:20.985Z,21.85
2023-01-25T10:45:50.273Z,21.17
2023-01-25T10:48:29.120Z,21.33
2023-01-25T10:50:57.742Z,21.95
2023-01-25T10:53:35.792Z,20.95
2023-01-25T10:56:17.585Z,21.08
2023-01-25T10:58:47.173Z,22.60
2023-01-25T11:01:28.294Z,20.83
2023-01-25T11:03:55.329Z,21.65
2023-01-25T11:06:40.006Z,21.50
2023-01-25T11:09:22.112Z,21.00
2023-01-25T11:11:57.064Z,20.73
2023-01-25T11:14:29.569Z,21.45
2023-01-25T11:16:57.728Z,19.58
2023-01-25T11:19:32.383Z,20.90
2023-01-25T11:22:00.817Z,20.70
2023-01-25T11:24:33.038Z,21.58
2023-01-25T11:27:26.340Z,20.63
2023-01-25T11:30:05.474Z,21.27
2023-01-25T11:32:33.101Z,20.65
2023-01-25T11:35:00.060Z,21.20
2023-01-25T11:37:38.909Z,21.38
2023-01-25T11:40:19.340Z,20.27
2023-01-25T11:43:04.515Z,21.15
2023-01-25T11:46:08.918Z,19.98
2023-01-25T11:49:00.062Z,21.77
2023-01-25T11:51:30.347Z,20.48
2023-01-25T11:54:52.683Z,21.10
2023-01-25T11:57:31.032Z,20.95
2023-01-25T12:00:12.415Z,20.85
2023-01-25T12:03:27.777Z,22.58
2023-01-25T12:06:04.045Z,21.15
2023-01-25T12:08:59.125Z,21.02
2023-01-25T12:11:35.369Z,22.02
2023-01-25T12:14:11.433Z,21.45
2023-01-25T12:16:53.551Z,22.63
2023-01-25T12:19:48.012Z,22.15
2023-01-25T12:22:40.161Z,20.95
2023-01-25T12:25:34.967Z,21.80
2023-01-25T12:28:15.176Z,20.88
2023-01-25T12:31:02.926Z,21.40
2023-01-25T12:33:45.427Z,21.80
2023-01-25T12:36:20.517Z,22.17
2023-01-25T12:38:56.491Z,22.50
2023-01-25T12:41:46.229Z,22.02
2023-01-25T12:44:35.933Z,24.15
2023-01-25T12:47:20.606Z,24.42
2023-01-25T12:50:23.916Z,25.70
2023-01-25T12:52:57.877Z,23.60
2023-01-25T12:55:24.911Z,24.30
2023-01-25T12:58:08.069Z,23.20
2023-01-25T13:00:45.713Z,23.17
2023-01-25T13:03:18.332Z,24.20
2023-01-25T13:05:45.150Z,23.35
2023-01-25T13:08:31.010Z,24.10
2023-01-25T13:11:13.955Z,23.05
2023-01-25T13:13:40.801Z,22.45
2023-01-25T13:16:37.268Z,23.30
2023-01-25T13:19:04.555Z,23.20
2023-01-25T13:21:37.429Z,22.45
2023-01-25T13:24:13.359Z,23.73
2023-01-25T13:26:55.449Z,23.80
2023-01-25T13:29:40.378Z,24.00
2023-01-25T13:32:35.235Z,23.55
2023-01-25T13:35:02.785Z,22.23
2023-01-25T13:37:31.870Z,22.33
2023-01-25T13:40:05.965Z,22.55
2023-01-25T13:42:38.367Z,22.38
2023-01-25T13:45:08.522Z,23.48
2023-01-25T13:47:39.790Z,22.65
2023-01-25T13:50:18.780Z,21.42
2023-01-25T13:53:15.493Z,21.92
2023-01-25T13:55:46.596Z,20.58
2023-01-25T13:58:21.786Z,21.83
2023-01-25T14:01:08.928Z,22.23
2023-01-25T14:03:47.301Z,22.33
2023-01-25T14:06:24.429Z,21.52
2023-01-25T14:08:52.233Z,21.33
2023-01-25T14:11:24.149Z,20.20
2023-01-25T14:14:00.181Z,21.38
2023-01-25T14:16:30.141Z,20.25
2023-01-25T14:19:14.219Z,20.15
2023-01-25T14:21:41.077Z,21.02
2023-01-25T14:24:11.737Z,20.95
2023-01-25T14:26:39.456Z,20.98
2023-01-25T14:29:31.856Z,20.52
2023-01-25T14:32:00.163Z,21.05
2023-01-25T14:34:27.403Z,21.75
2023-01-25T14:37:15.242Z,21.08
2023-01-25T14:39:42.012Z,20.70
2023-01-25T14:42:09.123Z,21.98
2023-01-25T14:44:36.345Z,22.42
2023-01-25T14:47:23.337Z,23.95
2023-01-25T14:49:50.495Z,21.55
2023-01-25T14:52:19.585Z,23.35
2023-01-25T14:54:55.027Z,21.88
2023-01-25T14:57:39.317Z,21.83
2023-01-25T15:00:35.354Z,21.70
2023-01-25T15:03:05.239Z,22.20
2023-01-25T15:05:34.299Z,22.15
2023-01-25T15:08:07.309Z,21.85
2023-01-25T15:10:38.753Z,23.02
2023-01-25T15:13:14.654Z,22.58
2023-01-25T15:15:52.432Z,23.90
2023-01-25T15:18:45.294Z,23.02
2023-01-25T15:21:16.273Z,24.23
2023-01-25T15:23:45.328Z,22.63
2023-01-25T15:26:19.409Z,24.48
2023-01-25T15:28:46.589Z,23.38
2023-01-25T15:31:20.038Z,24.00
2023-01-25T15:33:47.682Z,24.33
2023-01-25T15:36:15.052Z,24.42
2023-01-25T15:38:42.275Z,23.90
2023-01-25T15:41:10.378Z,25.90
2023-01-25T15:43:37.381Z,23.83
2023-01-25T15:46:04.945Z,23.95
2023-01-25T15:48:37.482Z,25.63
2023-01-25T15:51:04.594Z,25.98
2023-01-25T15:53:31.435Z,27.90
2023-01-25T15:56:05.192Z,26.75
2023-01-25T15:58:40.113Z,25.13
2023-01-25T16:01:07.262Z,26.45
2023-01-25T16:03:34.223Z,27.35
2023-01-25T16:06:07.883Z,28.15
2023-01-25T16:08:34.832Z,32.22
2023-01-25T16:11:01.690Z,29.30
2023-01-25T16:13:28.498Z,27.15
2023-01-25T16:15:56.203Z,28.00
2023-01-25T16:18:22.987Z,27.65
2023-01-25T16:20:50.310Z,28.98
2023-01-25T16:23:18.625Z,26.95
2023-01-25T16:25:48.155Z,29.02
2023-01-25T16:28:16.045Z,28.60
2023-01-25T16:30:47.184Z,30.63
2023-01-25T16:33:14.084Z,30.92
2023-01-25T16:35:40.932Z,30.30
2023-01-25T16:38:11.260Z,30.42
2023-01-25T16:40:39.944Z,28.25
2023-01-25T16:43:06.743Z,29.42
2023-01-25T16:45:33.887Z,30.70
2023-01-25T16:48:02.038Z,30.58
2023-01-25T16:50:29.150Z,28.73
2023-01-25T16:52:56.404Z,28.25
2023-01-25T16:55:23.206Z,29.05
2023-01-25T16:57:51.483Z,29.88
2023-01-25T17:00:18.648Z,28.08
2023-01-25T17:02:58.227Z,29.30
2023-01-25T17:05:29.165Z,27.15
2023-01-25T17:07:56.435Z,25.38
2023-01-25T17:10:23.979Z,29.05
2023-01-25T17:12:51.298Z,27.65
2023-01-25T17:15:20.633Z,26.58
2023-01-25T17:17:47.996Z,27.15
2023-01-25T17:20:14.859Z,28.60
2023-01-25T17:22:42.698Z,26.52
2023-01-25T17:25:09.630Z,27.92
2023-01-25T17:27:36.459Z,28.23
2023-01-25T17:30:03.583Z,28.65
2023-01-25T17:32:30.373Z,28.52
2023-01-25T17:34:59.213Z,31.27
2023-01-25T17:37:26.465Z,29.88
2023-01-25T17:39:53.965Z,29.40
2023-01-25T17:42:22.364Z,28.70
2023-01-25T17:44:49.333Z,26.98
2023-01-25T17:47:16.072Z,29.80
2023-01-25T17:49:42.975Z,29.85
2023-01-25T17:53:01.242Z,26.42
2023-01-25T17:55:29.591Z,28.95
2023-01-25T17:57:58.857Z,28.23
2023-01-25T18:00:33.710Z,28.38
2023-01-25T18:03:06.081Z,27.73
2023-01-25T18:05:32.820Z,29.20
2023-01-25T18:07:59.743Z,29.02
2023-01-25T18:10:26.608Z,29.42
2023-01-25T18:13:04.005Z,29.30
2023-01-25T18:15:31.380Z,28.20
2023-01-25T18:17:58.506Z,31.17
2023-01-25T18:20:25.315Z,29.05
2023-01-25T18:22:52.508Z,27.90
2023-01-25T18:25:28.531Z,30.13
2023-01-25T18:27:57.363Z,28.33
2023-01-25T18:30:34.140Z,28.48
2023-01-25T18:33:01.727Z,26.80
2023-01-25T18:35:29.360Z,26.52
2023-01-25T18:37:56.333Z,28.10
2023-01-25T18:40:23.370Z,29.13
2023-01-25T18:42:50.721Z,28.02
2023-01-25T18:45:17.987Z,28.73
2023-01-25T18:47:44.841Z,30.02
2023-01-25T18:50:14.104Z,26.05
2023-01-25T18:52:41.093Z,27.63
2023-01-25T18:55:08.535Z,27.75
2023-01-25T18:57:35.603Z,26.02
2023-01-25T19:00:03.906Z,25.90
2023-01-25T19:02:30.773Z,28.60
2023-01-25T19:04:57.825Z,27.13
2023-01-25T19:07:24.566Z,26.70
2023-01-25T19:09:51.337Z,26.52
2023-01-25T19:12:18.253Z,25.20
2023-01-25T19:14:45.096Z,24.73
2023-01-25T19:17:12.444Z,25.00
2023-01-25T19:19:39.369Z,25.20
2023-01-25T19:22:06.141Z,23.90
2023-01-25T19:24:33.046Z,26.15
2023-01-25T19:26:59.933Z,25.20
2023-01-25T19:29:26.915Z,24.10
2023-01-25T19:31:53.906Z,26.05
2023-01-25T19:34:20.956Z,25.55
2023-01-25T19:36:49.458Z,26.02
2023-01-25T19:39:17.385Z,26.23
2023-01-25T19:41:44.180Z,25.95
2023-01-25T19:44:12.611Z,28.15
2023-01-25T19:46:39.744Z,27.00
2023-01-25T19:49:08.734Z,27.48
2023-01-25T19:51:37.899Z,26.10
2023-01-25T19:54:07.473Z,25.27
2023-01-25T19:56:39.686Z,25.58
2023-01-25T19:59:15.394Z,24.77
2023-01-25T20:01:46.376Z,25.40
2023-01-25T20:04:20.373Z,25.70
2023-01-25T20:06:50.452Z,25.17
2023-01-25T20:09:18.789Z,26.00
2023-01-25T20:11:47.524Z,24.40
2023-01-25T20:14:30.371Z,27.30
2023-01-25T20:17:03.673Z,24.70
2023-01-25T20:19:32.970Z,25.27
2023-01-25T21:02:07.136Z,21.95
2023-01-25T21:22:19.139Z,24.35
2023-01-25T21:25:22.921Z,23.65
2023-01-25T21:27:59.341Z,24.63
2023-01-25T21:30:28.704Z,23.02
2023-01-25T22:34:27.433Z,24.60
2023-01-25T22:36:58.039Z,23.83
2023-01-25T22:39:28.550Z,26.23
2023-01-25T22:41:58.012Z,24.05
2023-01-25T22:44:26.371Z,27.05
2023-01-25T22:46:57.732Z,24.63
2023-01-25T22:52:21.090Z,25.30
2023-01-25T22:57:43.334Z,25.70
2023-01-25T23:04:00.629Z,26.70
2023-01-25T23:16:56.407Z,25.33
2023-01-25T23:19:28.196Z,23.73
2023-01-25T23:24:49.290Z,26.25
2023-01-25T23:30:08.106Z,25.55
2023-01-25T23:35:57.909Z,23.38
2023-01-25T23:48:23.190Z,24.77
